createdAt,value
2022-11-24T00:01:08.552Z,88.61
2022-11-24T00:03:35.606Z,88.12
2022-11-24T00:06:04.559Z,87.70
2022-11-24T00:08:31.551Z,88.39
2022-11-24T00:11:06.497Z,88.16
2022-11-24T00:13:33.878Z,87.81
2022-11-24T00:16:31.045Z,88.07
2022-11-24T00:18:59.469Z,87.86
2022-11-24T00:21:27.706Z,88.07
2022-11-24T00:23:54.555Z,88.04
2022-11-24T00:26:23.567Z,88.22
2022-11-24T00:28:51.677Z,88.18
2022-11-24T00:31:19.777Z,87.74
2022-11-24T00:33:48.064Z,87.93
2022-11-24T00:36:15.777Z,87.56
2022-11-24T00:38:43.011Z,87.25
2022-11-24T00:41:10.124Z,86.71
2022-11-24T00:43:36.971Z,87.15
2022-11-24T00:46:04.211Z,86.41
2022-11-24T00:48:31.424Z,86.75
2022-11-24T00:51:02.620Z,85.94
2022-11-24T00:53:30.229Z,86.25
2022-11-24T00:55:57.032Z,85.90
2022-11-24T00:58:24.778Z,85.91
2022-11-24T01:00:51.736Z,85.59
2022-11-24T01:03:20.279Z,86.33
2022-11-24T01:05:47.230Z,86.17
2022-11-24T01:08:14.889Z,85.88
2022-11-24T01:10:41.667Z,85.84
2022-11-24T01:13:08.479Z,85.70
2022-11-24T01:15:36.272Z,86.03
2022-11-24T01:18:04.658Z,86.42
2022-11-24T01:20:32.113Z,86.61
2022-11-24T01:22:58.956Z,86.73
2022-11-24T01:25:25.638Z,86.03
2022-11-24T01:27:52.749Z,86.32
2022-11-24T01:30:19.547Z,86.88
2022-11-24T01:32:46.279Z,86.68
2022-11-24T01:35:13.035Z,86.67
2022-11-24T01:37:39.806Z,87.16
2022-11-24T01:40:07.328Z,87.40
2022-11-24T01:42:43.778Z,87.28
2022-11-24T01:45:36.659Z,87.67
2022-11-24T01:48:05.829Z,87.81
2022-11-24T01:50:33.789Z,87.64
2022-11-24T01:53:00.646Z,87.42
2022-11-24T01:55:31.012Z,87.25
2022-11-24T01:58:05.868Z,87.73
2022-11-24T02:00:34.001Z,87.41
2022-11-24T02:03:00.964Z,87.50
2022-11-24T02:06:04.265Z,87.06
2022-11-24T02:08:40.550Z,87.08
2022-11-24T02:11:07.561Z,87.31
2022-11-24T02:13:37.374Z,87.17
2022-11-24T02:16:05.859Z,86.98
2022-11-24T02:18:32.717Z,87.28
2022-11-24T02:21:00.202Z,87.18
2022-11-24T02:23:42.176Z,87.20
2022-11-24T02:26:31.376Z,87.47
2022-11-24T02:28:58.228Z,87.51
2022-11-24T02:31:25.349Z,87.60
2022-11-24T02:33:52.214Z,87.54
2022-11-24T02:36:18.969Z,87.52
2022-11-24T02:38:45.665Z,87.46
2022-11-24T02:41:15.873Z,87.78
2022-11-24T02:43:48.430Z,87.60
2022-11-24T02:46:15.191Z,88.05
2022-11-24T02:48:42.377Z,88.46
2022-11-24T02:51:09.360Z,88.28
2022-11-24T02:53:36.076Z,88.18
2022-11-24T02:56:02.901Z,87.92
2022-11-24T02:58:29.721Z,88.00
2022-11-24T03:00:57.350Z,88.49
2022-11-24T03:03:24.671Z,88.34
2022-11-24T03:05:51.445Z,88.28
2022-11-24T03:08:18.212Z,88.72
2022-11-24T03:10:45.255Z,88.60
2022-11-24T03:13:12.154Z,88.79
2022-11-24T03:15:38.945Z,88.43
2022-11-24T03:18:07.098Z,88.41
2022-11-24T03:20:33.933Z,87.75
2022-11-24T03:23:00.616Z,87.97
2022-11-24T03:25:27.383Z,88.13
2022-11-24T03:27:56.488Z,87.71
2022-11-24T03:30:23.287Z,87.73
2022-11-24T03:32:52.570Z,87.82
2022-11-24T03:35:20.762Z,87.76
2022-11-24T03:37:47.529Z,87.86
2022-11-24T03:40:14.429Z,87.65
2022-11-24T03:42:48.869Z,87.63
2022-11-24T03:45:44.122Z,87.48
2022-11-24T03:48:04.536Z,87.39
2022-11-24T03:50:31.254Z,87.53
2022-11-24T03:52:58.068Z,87.39
2022-11-24T03:55:24.878Z,87.42
2022-11-24T03:57:51.781Z,87.36
2022-11-24T04:00:18.842Z,87.08
2022-11-24T04:02:45.650Z,87.29
2022-11-24T04:05:12.534Z,86.88
2022-11-24T04:07:39.417Z,86.91
2022-11-24T04:10:06.983Z,87.21
2022-11-24T04:12:46.032Z,86.30
2022-11-24T04:15:15.654Z,86.60
2022-11-24T04:17:42.917Z,86.14
2022-11-24T04:20:10.464Z,85.84
2022-11-24T04:22:37.184Z,85.91
2022-11-24T04:25:04.813Z,86.40
2022-11-24T04:27:35.245Z,86.31
2022-11-24T04:30:02.251Z,85.99
2022-11-24T04:32:29.522Z,86.50
2022-11-24T04:34:56.375Z,86.12
2022-11-24T04:37:23.073Z,86.09
2022-11-24T04:39:49.910Z,86.99
2022-11-24T04:42:16.612Z,86.55
2022-11-24T04:44:43.321Z,86.71
2022-11-24T04:47:15.723Z,87.08
2022-11-24T04:49:42.491Z,87.02
2022-11-24T04:52:09.193Z,86.46
2022-11-24T04:54:36.159Z,86.41
2022-11-24T04:57:03.020Z,87.18
2022-11-24T04:59:30.146Z,87.06
2022-11-24T05:01:56.864Z,86.63
2022-11-24T05:04:23.748Z,85.62
2022-11-24T05:06:50.457Z,86.33
2022-11-24T05:09:17.918Z,85.13
2022-11-24T05:11:44.683Z,84.98
2022-11-24T05:14:11.422Z,85.51
2022-11-24T05:16:38.204Z,85.56
2022-11-24T05:19:05.006Z,85.46
2022-11-24T05:21:31.766Z,85.10
2022-11-24T05:23:58.561Z,84.89
2022-11-24T05:26:26.803Z,84.33
2022-11-24T05:28:53.791Z,84.28
2022-11-24T05:31:20.544Z,83.87
2022-11-24T05:33:47.521Z,84.08
2022-11-24T05:36:34.183Z,83.75
2022-11-24T05:39:01.401Z,84.02
2022-11-24T05:41:28.129Z,84.27
2022-11-24T05:43:54.930Z,84.13
2022-11-24T05:46:21.729Z,84.03
2022-11-24T05:48:48.749Z,84.50
2022-11-24T05:51:15.441Z,84.08
2022-11-24T05:53:42.243Z,84.47
2022-11-24T05:56:09.048Z,83.99
2022-11-24T05:58:35.823Z,84.06
2022-11-24T06:01:06.405Z,83.70
2022-11-24T06:03:33.337Z,83.40
2022-11-24T06:06:00.110Z,83.88
2022-11-24T06:08:30.840Z,83.91
2022-11-24T06:11:17.613Z,83.91
2022-11-24T06:13:45.632Z,82.98
2022-11-24T06:16:12.884Z,84.00
2022-11-24T06:18:39.758Z,83.85
2022-11-24T06:21:11.465Z,83.70
2022-11-24T06:23:39.414Z,83.36
2022-11-24T06:26:06.790Z,83.09
2022-11-24T06:28:33.593Z,83.14
2022-11-24T06:31:04.223Z,84.27
2022-11-24T06:33:34.684Z,83.42
2022-11-24T06:36:04.641Z,83.27
2022-11-24T06:38:32.207Z,83.75
2022-11-24T06:41:03.640Z,83.31
2022-11-24T06:43:31.083Z,83.56
2022-11-24T06:45:58.370Z,84.05
2022-11-24T06:48:26.147Z,84.02
2022-11-24T06:50:53.511Z,84.52
2022-11-24T06:53:20.542Z,84.82
2022-11-24T06:55:47.418Z,85.22
2022-11-24T06:58:14.172Z,84.85
2022-11-24T07:00:41.078Z,84.67
2022-11-24T07:03:08.965Z,85.24
2022-11-24T07:05:35.708Z,85.55
2022-11-24T07:08:02.549Z,85.13
2022-11-24T07:10:29.355Z,84.97
2022-11-24T07:12:56.099Z,85.24
2022-11-24T07:15:22.877Z,85.73
2022-11-24T07:17:49.631Z,85.39
2022-11-24T07:20:16.819Z,85.50
2022-11-24T07:22:43.604Z,85.86
2022-11-24T07:25:10.996Z,85.87
2022-11-24T07:27:37.810Z,86.08
2022-11-24T07:30:05.050Z,85.58
2022-11-24T07:32:31.848Z,85.90
2022-11-24T07:34:58.731Z,86.14
2022-11-24T07:37:31.014Z,86.13
2022-11-24T07:39:58.452Z,85.95
2022-11-24T07:42:25.122Z,85.94
2022-11-24T07:44:51.900Z,85.80
2022-11-24T07:47:18.639Z,86.30
2022-11-24T07:49:45.516Z,86.44
2022-11-24T07:52:12.259Z,85.49
2022-11-24T07:54:38.987Z,85.76
2022-11-24T07:57:05.708Z,86.33
2022-11-24T07:59:32.572Z,86.64
2022-11-24T08:01:59.331Z,86.46
2022-11-24T08:04:26.078Z,86.73
2022-11-24T08:06:52.804Z,86.61
2022-11-24T08:09:19.682Z,86.75
2022-11-24T08:11:46.419Z,86.39
2022-11-24T08:14:13.225Z,86.68
2022-11-24T08:16:40.081Z,86.41
2022-11-24T08:19:06.938Z,86.94
2022-11-24T08:21:33.799Z,87.01
2022-11-24T08:24:00.710Z,87.50
2022-11-24T08:26:27.590Z,86.96
2022-11-24T08:28:56.756Z,87.25
2022-11-24T08:31:24.988Z,87.07
2022-11-24T08:33:51.820Z,86.88
2022-11-24T08:36:19.391Z,87.55
2022-11-24T08:38:47.310Z,87.39
2022-11-24T08:41:16.118Z,87.44
2022-11-24T08:43:43.333Z,87.52
2022-11-24T08:46:12.689Z,87.40
2022-11-24T08:48:39.652Z,87.14
2022-11-24T08:51:09.424Z,87.59
2022-11-24T08:53:36.506Z,87.67
2022-11-24T08:56:05.147Z,87.65
2022-11-24T08:58:32.535Z,87.73
2022-11-24T09:01:14.167Z,87.63
2022-11-24T09:03:48.255Z,87.73
2022-11-24T09:06:25.241Z,87.70
2022-11-24T09:08:54.095Z,87.67
2022-11-24T09:11:20.823Z,87.15
2022-11-24T09:13:47.713Z,87.06
2022-11-24T09:16:17.219Z,86.27
2022-11-24T09:18:44.759Z,86.02
2022-11-24T09:21:12.854Z,85.78
2022-11-24T09:23:40.598Z,85.77
2022-11-24T09:26:09.256Z,85.42
2022-11-24T09:28:36.236Z,85.77
2022-11-24T09:31:04.652Z,85.91
2022-11-24T09:33:32.263Z,86.12
2022-11-24T09:35:59.612Z,85.64
2022-11-24T09:38:26.649Z,86.07
2022-11-24T09:40:55.869Z,85.87
2022-11-24T09:43:37.527Z,86.02
2022-11-24T09:46:09.258Z,86.23
2022-11-24T09:48:47.336Z,85.76
2022-11-24T09:51:15.334Z,85.31
2022-11-24T09:53:53.824Z,84.83
2022-11-24T09:56:26.552Z,84.93
2022-11-24T09:59:06.645Z,84.75
2022-11-24T10:01:37.013Z,85.90
2022-11-24T10:04:06.636Z,86.34
2022-11-24T10:06:46.056Z,86.65
2022-11-24T10:09:47.233Z,86.73
2022-11-24T10:12:41.429Z,85.43
2022-11-24T10:15:18.917Z,85.71
2022-11-24T10:18:21.264Z,85.89
2022-11-24T10:21:12.806Z,86.31
2022-11-24T10:23:46.303Z,86.43
2022-11-24T10:26:26.984Z,86.46
2022-11-24T10:28:55.499Z,86.90
2022-11-24T10:31:23.992Z,86.92
2022-11-24T10:33:51.100Z,86.53
2022-11-24T10:36:32.290Z,86.73
2022-11-24T10:39:05.032Z,86.02
2022-11-24T10:41:52.177Z,86.26
2022-11-24T10:44:18.962Z,85.79
2022-11-24T10:46:45.871Z,85.71
2022-11-24T10:49:19.998Z,86.10
2022-11-24T10:51:54.678Z,85.71
2022-11-24T10:54:23.561Z,85.03
2022-11-24T10:56:52.335Z,83.75
2022-11-24T10:59:24.923Z,83.48
2022-11-24T11:01:52.665Z,83.95
2022-11-24T11:04:28.176Z,84.22
2022-11-24T11:07:27.710Z,83.74
2022-11-24T11:10:33.085Z,84.17
2022-11-24T11:12:59.882Z,83.61
2022-11-24T11:15:30.349Z,83.44
2022-11-24T11:17:59.022Z,82.79
2022-11-24T11:20:28.261Z,82.83
2022-11-24T11:22:56.207Z,82.51
2022-11-24T11:25:41.273Z,82.55
2022-11-24T11:28:29.675Z,82.91
2022-11-24T11:31:22.162Z,83.18
2022-11-24T11:34:08.273Z,83.34
2022-11-24T11:36:53.175Z,83.43
2022-11-24T11:39:30.371Z,84.20
2022-11-24T11:43:01.189Z,84.53
2022-11-24T11:45:30.148Z,83.13
2022-11-24T11:48:03.327Z,83.60
2022-11-24T11:51:06.765Z,84.24
2022-11-24T11:54:09.053Z,83.17
2022-11-24T11:56:47.159Z,83.45
2022-11-24T11:59:16.730Z,84.08
2022-11-24T12:02:24.966Z,83.52
2022-11-24T12:04:59.688Z,83.60
2022-11-24T12:07:41.707Z,83.72
2022-11-24T12:10:14.660Z,83.78
2022-11-24T12:13:04.319Z,84.85
2022-11-24T12:15:47.700Z,84.40
2022-11-24T12:18:58.799Z,83.83
2022-11-24T12:21:29.327Z,84.08
2022-11-24T12:24:19.336Z,83.73
2022-11-24T12:26:59.247Z,83.54
2022-11-24T12:29:34.393Z,83.62
2022-11-24T12:32:31.171Z,83.70
2022-11-24T12:35:15.648Z,84.13
2022-11-24T12:38:07.193Z,83.42
2022-11-24T12:41:18.088Z,83.84
2022-11-24T12:43:50.769Z,82.25
2022-11-24T12:46:39.478Z,79.51
2022-11-24T12:49:18.932Z,79.00
2022-11-24T12:51:49.399Z,78.95
2022-11-24T12:54:19.055Z,79.44
2022-11-24T12:57:23.867Z,80.73
2022-11-24T13:00:19.691Z,80.42
2022-11-24T13:02:51.843Z,81.90
2022-11-24T13:05:48.199Z,82.94
2022-11-24T13:08:16.009Z,84.00
2022-11-24T13:10:58.362Z,84.85
2022-11-24T13:13:50.049Z,85.14
2022-11-24T13:19:12.654Z,86.35
2022-11-24T13:21:51.102Z,86.49
2022-11-24T13:24:19.095Z,86.62
2022-11-24T13:26:52.845Z,86.36
2022-11-24T13:29:28.828Z,86.80
2022-11-24T13:32:17.703Z,86.57
2022-11-24T13:34:45.791Z,86.47
2022-11-24T13:37:31.542Z,86.01
2022-11-24T13:40:22.991Z,86.12
2022-11-24T13:43:00.482Z,85.63
2022-11-24T13:45:40.322Z,85.05
2022-11-24T13:48:19.835Z,84.72
2022-11-24T13:50:50.007Z,85.59
2022-11-24T13:53:42.668Z,85.09
2022-11-24T13:56:12.430Z,84.93
2022-11-24T13:58:40.860Z,85.08
2022-11-24T14:01:28.807Z,85.26
2022-11-24T14:04:30.651Z,85.25
2022-11-24T14:07:07.873Z,84.84
2022-11-24T14:09:50.491Z,85.58
2022-11-24T14:12:23.881Z,86.49
2022-11-24T14:14:57.210Z,86.32
2022-11-24T14:17:24.011Z,87.10
2022-11-24T14:19:55.242Z,86.83
2022-11-24T14:22:26.812Z,86.58
2022-11-24T14:25:01.302Z,86.81
2022-11-24T14:27:34.641Z,87.06
2022-11-24T14:30:13.653Z,87.24
2022-11-24T14:32:40.778Z,87.36
2022-11-24T14:35:31.798Z,86.68
2022-11-24T14:38:01.366Z,87.11
2022-11-24T14:40:51.365Z,87.30
2022-11-24T14:43:30.995Z,87.82
2022-11-24T14:46:04.896Z,87.67
2022-11-24T14:48:34.129Z,87.34
2022-11-24T14:51:15.620Z,88.03
2022-11-24T14:53:44.181Z,87.89
2022-11-24T14:56:26.031Z,88.47
2022-11-24T14:58:54.280Z,88.64
2022-11-24T15:01:32.862Z,88.33
2022-11-24T15:04:39.308Z,88.19
2022-11-24T15:07:11.655Z,88.62
2022-11-24T15:09:43.133Z,88.71
2022-11-24T15:12:28.871Z,89.22
2022-11-24T15:15:07.852Z,88.58
2022-11-24T15:17:34.825Z,89.39
2022-11-24T15:20:09.302Z,89.05
2022-11-24T15:22:41.249Z,89.22
2022-11-24T15:25:25.810Z,89.94
2022-11-24T15:27:52.859Z,90.32
2022-11-24T15:30:19.611Z,90.72
2022-11-24T15:32:52.182Z,90.30
2022-11-24T15:35:23.962Z,90.13
2022-11-24T15:37:54.026Z,90.56
2022-11-24T15:40:22.375Z,91.62
2022-11-24T15:42:54.221Z,91.51
2022-11-24T15:45:24.427Z,91.26
2022-11-24T15:47:51.712Z,91.16
2022-11-24T15:50:19.257Z,91.53
2022-11-24T15:52:46.745Z,90.89
2022-11-24T15:55:19.166Z,91.46
2022-11-24T15:57:46.308Z,91.23
2022-11-24T16:00:20.965Z,91.17
2022-11-24T16:02:48.081Z,91.08
2022-11-24T16:05:15.923Z,91.18
2022-11-24T16:07:42.971Z,90.51
2022-11-24T16:10:30.582Z,91.16
2022-11-24T16:12:57.463Z,90.50
2022-11-24T16:15:24.238Z,90.94
2022-11-24T16:17:51.381Z,90.47
2022-11-24T16:20:18.289Z,90.71
2022-11-24T16:22:45.288Z,90.58
2022-11-24T16:25:12.470Z,89.89
2022-11-24T16:27:39.329Z,90.43
2022-11-24T16:30:07.036Z,89.79
2022-11-24T16:32:34.007Z,89.47
2022-11-24T16:35:00.846Z,90.63
2022-11-24T16:37:27.606Z,89.45
2022-11-24T16:39:54.393Z,90.30
2022-11-24T16:42:21.165Z,89.91
2022-11-24T16:44:49.572Z,90.32
2022-11-24T16:47:16.743Z,90.45
2022-11-24T16:49:43.496Z,89.94
2022-11-24T16:52:10.392Z,90.38
2022-11-24T16:54:37.231Z,89.75
2022-11-24T16:57:04.224Z,90.43
2022-11-24T16:59:31.001Z,90.43
2022-11-24T17:01:58.792Z,90.43
2022-11-24T17:04:25.806Z,90.02
2022-11-24T17:06:52.674Z,91.13
2022-11-24T17:09:19.405Z,91.00
2022-11-24T17:11:46.242Z,90.58
2022-11-24T17:14:13.276Z,90.17
2022-11-24T17:16:40.652Z,90.56
2022-11-24T17:19:07.544Z,90.41
2022-11-24T17:21:34.450Z,90.85
2022-11-24T17:24:05.508Z,90.58
2022-11-24T17:26:33.004Z,90.02
2022-11-24T17:28:59.768Z,91.18
2022-11-24T17:31:29.048Z,90.89
2022-11-24T17:33:57.576Z,90.14
2022-11-24T17:36:24.599Z,90.47
2022-11-24T17:38:51.852Z,90.87
2022-11-24T17:41:20.168Z,91.18
2022-11-24T17:43:51.084Z,90.49
2022-11-24T17:46:18.286Z,90.88
2022-11-24T17:48:45.531Z,89.72
2022-11-24T17:51:17.097Z,90.15
2022-11-24T17:53:45.503Z,89.73
2022-11-24T17:56:18.349Z,90.02
2022-11-24T17:58:45.415Z,90.34
2022-11-24T18:01:13.387Z,90.27
2022-11-24T18:03:41.284Z,89.97
2022-11-24T18:06:13.163Z,89.57
2022-11-24T18:08:41.864Z,89.95
2022-11-24T18:11:11.204Z,89.44
2022-11-24T18:13:56.633Z,89.42
2022-11-24T18:16:28.018Z,89.31
2022-11-24T18:19:08.370Z,89.16
2022-11-24T18:21:37.990Z,88.87
2022-11-24T18:24:05.036Z,88.54
2022-11-24T18:26:31.927Z,88.32
2022-11-24T18:28:58.645Z,88.70
2022-11-24T18:31:26.375Z,88.88
2022-11-24T18:33:53.372Z,88.66
2022-11-24T18:36:30.034Z,87.54
2022-11-24T18:39:00.370Z,87.59
2022-11-24T18:41:28.605Z,87.17
2022-11-24T18:43:58.308Z,87.12
2022-11-24T18:46:25.246Z,87.45
2022-11-24T18:48:53.286Z,87.34
2022-11-24T18:51:20.165Z,87.85
2022-11-24T18:53:51.851Z,87.01
2022-11-24T18:56:19.107Z,87.40
2022-11-24T18:58:46.353Z,87.23
2022-11-24T19:01:16.033Z,87.38
2022-11-24T19:03:49.035Z,86.74
2022-11-24T19:06:17.708Z,87.82
2022-11-24T19:08:45.243Z,86.67
2022-11-24T19:11:23.719Z,86.63
2022-11-24T19:13:51.304Z,87.56
2022-11-24T19:16:19.553Z,87.15
2022-11-24T19:18:53.978Z,87.64
2022-11-24T19:21:22.028Z,86.98
2022-11-24T19:23:50.041Z,86.63
2022-11-24T19:26:16.895Z,87.24
2022-11-24T19:28:44.505Z,86.93
2022-11-24T19:31:13.140Z,86.73
2022-11-24T19:33:40.529Z,86.40
2022-11-24T19:36:18.382Z,87.26
2022-11-24T19:38:56.110Z,86.88
2022-11-24T19:41:27.793Z,87.42
2022-11-24T19:43:55.004Z,87.06
2022-11-24T19:46:23.439Z,87.70
2022-11-24T19:48:54.248Z,87.62
2022-11-24T19:51:24.249Z,87.18
2022-11-24T19:53:51.277Z,88.39
2022-11-24T19:56:26.279Z,87.28
2022-11-24T19:58:54.485Z,87.65
2022-11-24T20:01:24.773Z,87.06
2022-11-24T20:03:59.042Z,87.90
2022-11-24T20:06:31.530Z,87.69
2022-11-24T20:09:00.467Z,88.77
2022-11-24T20:11:28.406Z,88.05
2022-11-24T20:13:55.341Z,88.31
2022-11-24T20:16:28.263Z,89.22
2022-11-24T20:19:21.463Z,89.06
2022-11-24T20:21:50.066Z,88.85
2022-11-24T20:24:23.373Z,89.27
2022-11-24T20:26:56.457Z,89.31
2022-11-24T20:29:23.339Z,89.42
2022-11-24T20:31:53.451Z,88.73
2022-11-24T20:34:21.038Z,89.05
2022-11-24T20:36:48.550Z,89.17
2022-11-24T20:39:18.638Z,89.57
2022-11-24T20:41:45.896Z,89.60
2022-11-24T20:44:15.704Z,88.80
2022-11-24T20:46:43.819Z,89.39
2022-11-24T20:49:16.176Z,88.72
2022-11-24T20:51:49.646Z,88.90
2022-11-24T20:54:18.247Z,89.17
2022-11-24T20:56:46.576Z,89.61
2022-11-24T20:59:16.405Z,89.01
2022-11-24T21:01:45.644Z,88.76
2022-11-24T21:04:15.564Z,89.09
2022-11-24T21:06:42.462Z,88.94
2022-11-24T21:09:09.691Z,88.68
2022-11-24T21:11:38.938Z,89.33
2022-11-24T21:14:06.176Z,88.37
2022-11-24T21:16:35.356Z,88.81
2022-11-24T21:19:05.315Z,89.37
2022-11-24T21:21:34.719Z,89.08
2022-11-24T21:24:07.306Z,88.58
2022-11-24T21:26:38.218Z,87.94
2022-11-24T21:29:05.978Z,87.42
2022-11-24T21:31:36.858Z,87.13
2022-11-24T21:34:04.067Z,87.85
2022-11-24T21:36:31.709Z,87.58
2022-11-24T21:38:59.180Z,87.85
2022-11-24T21:41:28.590Z,86.92
2022-11-24T21:43:56.031Z,87.11
2022-11-24T21:46:23.272Z,86.66
2022-11-24T21:48:50.366Z,86.52
2022-11-24T21:51:19.320Z,86.23
2022-11-24T21:53:47.107Z,85.42
2022-11-24T21:56:19.307Z,84.67
2022-11-24T21:58:52.722Z,85.19
2022-11-24T22:01:22.060Z,84.52
2022-11-24T22:03:48.930Z,85.01
2022-11-24T22:06:17.813Z,84.84
2022-11-24T22:08:45.116Z,85.99
2022-11-24T22:11:13.863Z,86.62
2022-11-24T22:13:41.759Z,86.22
2022-11-24T22:16:11.147Z,85.58
2022-11-24T22:18:40.091Z,85.11
2022-11-24T22:21:08.351Z,85.57
2022-11-24T22:23:36.013Z,85.56
2022-11-24T22:26:14.475Z,84.63
2022-11-24T22:28:41.814Z,85.35
2022-11-24T22:31:20.461Z,84.13
2022-11-24T22:33:47.984Z,84.39
2022-11-24T22:36:16.104Z,84.25
2022-11-24T22:38:43.308Z,83.93
2022-11-24T22:41:15.277Z,84.12
2022-11-24T22:43:43.121Z,83.68
2022-11-24T22:46:12.193Z,82.82
2022-11-24T22:48:39.541Z,83.32
2022-11-24T22:51:08.796Z,83.70
2022-11-24T22:53:35.754Z,83.32
2022-11-24T22:56:04.455Z,83.43
2022-11-24T22:58:33.045Z,83.97
2022-11-24T23:01:08.931Z,83.71
2022-11-24T23:03:36.575Z,84.37
2022-11-24T23:06:05.474Z,83.96
2022-11-24T23:08:34.010Z,83.96
2022-11-24T23:11:06.538Z,84.97
2022-11-24T23:13:33.621Z,84.24
2022-11-24T23:16:09.343Z,84.98
2022-11-24T23:18:37.932Z,85.14
2022-11-24T23:21:15.340Z,84.62
2022-11-24T23:23:42.658Z,84.52
2022-11-24T23:26:11.921Z,85.23
2022-11-24T23:28:39.013Z,85.39
2022-11-24T23:31:10.061Z,85.57
2022-11-24T23:33:37.555Z,85.12
2022-11-24T23:36:09.242Z,85.44
2022-11-24T23:38:36.503Z,85.18
2022-11-24T23:41:05.559Z,85.06
2022-11-24T23:43:33.396Z,85.42
2022-11-24T23:46:04.149Z,86.30
2022-11-24T23:48:31.695Z,86.00
2022-11-24T23:51:06.141Z,85.77
2022-11-24T23:53:33.737Z,85.52
2022-11-24T23:56:00.524Z,85.91
2022-11-24T23:58:27.978Z,85.59
